createdAt,value
2022-10-05T00:02:24.403Z,76.95
2022-10-05T00:04:56.680Z,77.55
2022-10-05T00:07:25.137Z,77.81
2022-10-05T00:09:56.857Z,77.93
2022-10-05T00:12:25.761Z,78.11
2022-10-05T00:14:55.825Z,77.12
2022-10-05T00:17:25.877Z,77.95
2022-10-05T00:19:54.247Z,78.01
2022-10-05T00:22:30.545Z,77.97
2022-10-05T00:25:00.510Z,77.85
2022-10-05T00:27:38.347Z,78.16
2022-10-05T00:30:19.377Z,78.28
2022-10-05T00:32:46.334Z,77.99
2022-10-05T00:35:15.313Z,77.81
2022-10-05T00:37:42.784Z,77.92
2022-10-05T00:40:35.066Z,77.63
2022-10-05T00:43:37.125Z,77.80
2022-10-05T00:46:14.278Z,77.87
2022-10-05T00:48:53.291Z,78.11
2022-10-05T00:51:23.332Z,77.70
2022-10-05T00:54:09.385Z,77.50
2022-10-05T00:56:57.257Z,77.77
2022-10-05T00:59:51.501Z,77.68
2022-10-05T01:02:54.603Z,77.61
2022-10-05T01:05:56.990Z,77.74
2022-10-05T01:08:44.109Z,77.92
2022-10-05T01:11:19.306Z,77.82
2022-10-05T01:14:16.656Z,77.95
2022-10-05T01:16:49.962Z,78.09
2022-10-05T01:20:00.988Z,77.53
2022-10-05T01:22:27.929Z,77.69
2022-10-05T01:24:54.765Z,77.73
2022-10-05T01:27:33.183Z,77.49
2022-10-05T01:30:05.367Z,77.96
2022-10-05T01:32:39.727Z,77.75
2022-10-05T01:35:23.340Z,77.65
2022-10-05T01:37:57.931Z,77.63
2022-10-05T01:41:00.537Z,77.38
2022-10-05T01:43:46.926Z,77.52
2022-10-05T01:46:24.152Z,77.54
2022-10-05T01:48:53.807Z,77.39
2022-10-05T01:51:55.855Z,77.48
2022-10-05T01:54:22.803Z,77.72
2022-10-05T01:57:11.283Z,77.58
2022-10-05T02:00:08.047Z,77.49
2022-10-05T02:02:42.479Z,77.76
2022-10-05T02:05:46.567Z,77.35
2022-10-05T02:08:25.978Z,77.27
2022-10-05T02:11:05.734Z,77.44
2022-10-05T02:13:35.800Z,77.57
2022-10-05T02:16:14.344Z,77.68
2022-10-05T02:19:06.322Z,77.62
2022-10-05T02:21:35.234Z,77.61
2022-10-05T02:24:10.133Z,77.18
2022-10-05T02:26:39.718Z,77.48
2022-10-05T02:29:11.888Z,77.73
2022-10-05T02:31:46.240Z,77.53
2022-10-05T02:34:38.171Z,77.45
2022-10-05T02:37:36.074Z,77.58
2022-10-05T02:40:24.461Z,77.92
2022-10-05T02:43:04.807Z,77.76
2022-10-05T02:45:31.858Z,77.81
2022-10-05T02:47:59.109Z,78.24
2022-10-05T02:50:49.931Z,78.10
2022-10-05T02:53:16.844Z,78.31
2022-10-05T02:55:46.611Z,78.21
2022-10-05T02:58:24.430Z,78.40
2022-10-05T03:01:03.346Z,77.84
2022-10-05T03:03:39.892Z,78.94
2022-10-05T03:06:21.844Z,78.29
2022-10-05T03:09:08.738Z,78.81
2022-10-05T03:11:56.306Z,78.43
2022-10-05T03:14:49.396Z,78.60
2022-10-05T03:17:19.873Z,78.82
2022-10-05T03:20:08.670Z,78.87
2022-10-05T03:22:59.542Z,79.00
2022-10-05T03:25:48.149Z,79.15
2022-10-05T03:28:51.775Z,78.78
2022-10-05T03:31:32.375Z,79.02
2022-10-05T03:34:14.473Z,79.09
2022-10-05T03:36:49.815Z,79.12
2022-10-05T03:39:40.141Z,79.29
2022-10-05T03:42:48.768Z,79.10
2022-10-05T03:45:37.177Z,79.09
2022-10-05T03:48:12.249Z,79.02
2022-10-05T03:50:55.806Z,79.05
2022-10-05T03:53:26.657Z,79.43
2022-10-05T03:56:03.233Z,79.54
2022-10-05T03:58:44.103Z,79.20
2022-10-05T04:01:17.085Z,79.35
2022-10-05T04:03:52.667Z,79.14
2022-10-05T04:06:26.001Z,79.12
2022-10-05T04:09:11.554Z,79.58
2022-10-05T04:11:51.297Z,79.52
2022-10-05T04:14:35.139Z,78.97
2022-10-05T04:17:09.230Z,79.12
2022-10-05T04:19:38.868Z,79.31
2022-10-05T04:22:21.298Z,79.35
2022-10-05T04:25:08.464Z,78.97
2022-10-05T04:27:41.716Z,79.09
2022-10-05T04:30:22.608Z,78.77
2022-10-05T04:32:58.082Z,78.77
2022-10-05T04:35:40.110Z,79.00
2022-10-05T04:38:25.158Z,78.97
2022-10-05T04:40:58.152Z,78.87
2022-10-05T04:43:37.376Z,78.84
2022-10-05T04:46:24.115Z,79.00
2022-10-05T04:49:03.946Z,78.98
2022-10-05T04:51:51.378Z,79.07
2022-10-05T04:54:44.858Z,78.99
2022-10-05T04:57:21.284Z,78.68
2022-10-05T05:00:09.548Z,79.11
2022-10-05T05:02:52.314Z,79.13
2022-10-05T05:05:34.670Z,79.17
2022-10-05T05:08:19.787Z,79.27
2022-10-05T05:11:00.581Z,79.08
2022-10-05T05:13:46.074Z,79.22
2022-10-05T05:16:17.109Z,78.26
2022-10-05T05:19:12.310Z,78.85
2022-10-05T05:21:48.417Z,78.72
2022-10-05T05:25:04.803Z,78.68
2022-10-05T05:27:52.607Z,78.50
2022-10-05T05:30:31.071Z,78.35
2022-10-05T05:33:27.597Z,78.15
2022-10-05T05:36:13.320Z,77.83
2022-10-05T05:38:58.619Z,77.40
2022-10-05T05:41:37.094Z,77.84
2022-10-05T05:44:08.805Z,77.63
2022-10-05T05:47:06.866Z,77.42
2022-10-05T05:49:47.601Z,77.31
2022-10-05T05:52:51.966Z,77.24
2022-10-05T05:55:34.657Z,77.48
2022-10-05T05:58:06.587Z,77.34
2022-10-05T06:00:44.548Z,77.22
2022-10-05T06:03:39.937Z,76.83
2022-10-05T06:06:13.989Z,76.59
2022-10-05T06:09:03.910Z,76.69
2022-10-05T06:11:54.058Z,76.38
2022-10-05T06:14:35.461Z,76.28
2022-10-05T06:17:33.855Z,75.97
2022-10-05T06:20:05.499Z,75.94
2022-10-05T06:22:39.003Z,75.84
2022-10-05T06:25:12.110Z,75.31
2022-10-05T06:28:10.900Z,75.40
2022-10-05T06:30:56.510Z,75.21
2022-10-05T06:33:46.953Z,75.36
2022-10-05T06:36:19.755Z,74.70
2022-10-05T06:39:08.496Z,74.88
2022-10-05T06:42:07.668Z,74.31
2022-10-05T06:44:42.348Z,74.13
2022-10-05T06:47:36.849Z,73.88
2022-10-05T06:50:21.051Z,73.84
2022-10-05T06:53:02.077Z,73.44
2022-10-05T06:55:40.951Z,72.83
2022-10-05T06:58:43.367Z,72.82
2022-10-05T07:01:21.646Z,73.14
2022-10-05T07:03:57.842Z,73.19
2022-10-05T07:06:38.424Z,72.66
2022-10-05T07:09:26.599Z,72.64
2022-10-05T07:12:27.410Z,72.95
2022-10-05T07:15:07.184Z,72.94
2022-10-05T07:17:52.959Z,72.90
2022-10-05T07:20:49.223Z,72.54
2022-10-05T07:23:54.067Z,72.88
2022-10-05T07:26:27.219Z,72.56
2022-10-05T07:28:59.934Z,72.25
2022-10-05T07:31:45.420Z,72.02
2022-10-05T07:34:49.823Z,72.15
2022-10-05T07:37:58.184Z,71.84
2022-10-05T07:40:33.374Z,71.42
2022-10-05T07:43:14.786Z,70.66
2022-10-05T07:45:47.493Z,70.84
2022-10-05T07:48:16.694Z,70.50
2022-10-05T07:50:43.949Z,70.15
2022-10-05T07:53:25.664Z,69.78
2022-10-05T07:56:01.667Z,69.70
2022-10-05T07:58:48.556Z,69.33
2022-10-05T08:01:25.277Z,68.20
2022-10-05T08:04:15.439Z,67.86
2022-10-05T08:06:58.291Z,68.21
2022-10-05T08:09:57.618Z,68.27
2022-10-05T08:12:32.071Z,67.77
2022-10-05T08:15:22.594Z,68.23
2022-10-05T08:18:02.826Z,67.93
2022-10-05T08:20:50.510Z,67.49
2022-10-05T08:23:24.058Z,68.13
2022-10-05T08:26:22.927Z,67.24
2022-10-05T08:29:27.172Z,66.92
2022-10-05T08:32:18.974Z,67.19
2022-10-05T08:35:02.019Z,66.50
2022-10-05T08:37:33.931Z,65.83
2022-10-05T08:40:19.416Z,66.36
2022-10-05T08:43:04.567Z,65.29
2022-10-05T08:46:09.362Z,65.59
2022-10-05T08:49:03.005Z,65.32
2022-10-05T08:52:21.244Z,64.48
2022-10-05T08:55:10.049Z,65.63
2022-10-05T08:57:55.115Z,65.62
2022-10-05T09:00:24.195Z,64.80
2022-10-05T09:03:05.495Z,64.43
2022-10-05T09:05:41.592Z,64.81
2022-10-05T09:08:54.902Z,65.12
2022-10-05T09:11:55.081Z,64.96
2022-10-05T09:15:01.317Z,64.75
2022-10-05T09:18:07.418Z,64.75
2022-10-05T09:20:53.209Z,65.07
2022-10-05T09:23:32.194Z,64.79
2022-10-05T09:26:07.740Z,64.39
2022-10-05T09:29:02.601Z,64.44
2022-10-05T09:31:51.673Z,64.51
2022-10-05T09:34:21.639Z,64.03
2022-10-05T09:36:48.576Z,64.30
2022-10-05T09:39:39.689Z,63.83
2022-10-05T09:42:33.390Z,63.51
2022-10-05T09:45:31.557Z,63.31
2022-10-05T09:48:17.100Z,63.25
2022-10-05T09:51:06.817Z,63.50
2022-10-05T09:53:52.405Z,63.26
2022-10-05T09:56:40.515Z,63.04
2022-10-05T09:59:13.692Z,62.80
2022-10-05T10:01:46.959Z,62.87
2022-10-05T10:04:30.850Z,63.22
2022-10-05T10:07:03.928Z,62.33
2022-10-05T10:09:43.181Z,63.62
2022-10-05T10:12:17.179Z,63.54
2022-10-05T10:15:14.998Z,63.57
2022-10-05T10:17:41.912Z,63.34
2022-10-05T10:20:39.100Z,62.76
2022-10-05T10:23:35.449Z,62.77
2022-10-05T10:26:08.353Z,62.82
2022-10-05T10:29:07.849Z,62.83
2022-10-05T10:31:59.416Z,62.79
2022-10-05T10:34:32.211Z,62.59
2022-10-05T10:37:08.027Z,63.18
2022-10-05T10:40:10.387Z,62.26
2022-10-05T10:42:56.880Z,63.06
2022-10-05T10:45:36.228Z,62.27
2022-10-05T10:48:31.386Z,62.09
2022-10-05T10:51:01.006Z,61.51
2022-10-05T10:54:05.684Z,60.78
2022-10-05T10:56:48.528Z,60.84
2022-10-05T10:59:30.824Z,60.52
2022-10-05T11:02:20.726Z,59.96
2022-10-05T11:05:21.495Z,60.91
2022-10-05T11:07:58.540Z,60.52
2022-10-05T11:10:37.830Z,60.99
2022-10-05T11:13:31.774Z,60.68
2022-10-05T11:19:16.073Z,59.52
2022-10-05T11:22:31.408Z,59.41
2022-10-05T11:25:10.389Z,60.29
2022-10-05T11:28:25.107Z,58.73
2022-10-05T11:31:13.496Z,58.65
2022-10-05T11:34:19.489Z,57.09
2022-10-05T11:37:04.783Z,57.85
2022-10-05T11:39:55.956Z,56.99
2022-10-05T11:42:40.743Z,56.42
2022-10-05T11:45:25.202Z,56.32
2022-10-05T11:47:58.672Z,58.09
2022-10-05T11:50:35.670Z,57.25
2022-10-05T11:53:14.368Z,57.71
2022-10-05T11:56:24.763Z,57.83
2022-10-05T11:59:34.871Z,57.61
2022-10-05T12:02:32.447Z,57.64
2022-10-05T12:05:30.678Z,57.80
2022-10-05T12:08:24.529Z,56.09
2022-10-05T12:11:14.644Z,57.99
2022-10-05T12:14:02.736Z,56.34
2022-10-05T12:16:47.777Z,56.18
2022-10-05T12:19:41.358Z,56.73
2022-10-05T12:22:18.400Z,57.45
2022-10-05T12:24:45.365Z,56.34
2022-10-05T12:27:18.964Z,57.97
2022-10-05T12:30:13.928Z,57.20
2022-10-05T12:33:02.338Z,55.92
2022-10-05T12:35:49.752Z,56.95
2022-10-05T12:38:43.523Z,56.78
2022-10-05T12:41:25.459Z,56.99
2022-10-05T12:44:11.720Z,56.31
2022-10-05T12:46:41.538Z,57.56
2022-10-05T12:49:32.863Z,57.64
2022-10-05T12:52:02.801Z,57.77
2022-10-05T12:54:56.855Z,57.22
2022-10-05T12:57:42.054Z,58.09
2022-10-05T13:00:15.204Z,57.19
2022-10-05T13:02:47.564Z,58.00
2022-10-05T13:05:28.216Z,56.56
2022-10-05T13:08:04.236Z,57.29
2022-10-05T13:11:01.812Z,57.86
2022-10-05T13:14:08.239Z,56.65
2022-10-05T13:17:04.139Z,57.72
2022-10-05T13:19:35.858Z,57.83
2022-10-05T13:22:24.715Z,56.99
2022-10-05T13:25:26.145Z,57.12
2022-10-05T13:28:02.243Z,57.86
2022-10-05T13:30:29.966Z,57.97
2022-10-05T13:33:24.666Z,57.56
2022-10-05T13:36:10.515Z,57.28
2022-10-05T13:39:04.053Z,57.61
2022-10-05T13:41:51.603Z,57.36
2022-10-05T13:44:42.981Z,58.23
2022-10-05T13:47:39.222Z,58.46
2022-10-05T13:50:14.015Z,58.22
2022-10-05T13:52:59.348Z,58.16
2022-10-05T13:55:50.930Z,58.33
2022-10-05T13:58:23.832Z,59.35
2022-10-05T14:00:55.145Z,59.55
2022-10-05T14:03:37.525Z,59.35
2022-10-05T14:06:31.935Z,59.67
2022-10-05T14:09:00.317Z,60.07
2022-10-05T14:11:31.930Z,60.58
2022-10-05T14:14:10.727Z,60.63
2022-10-05T14:16:56.839Z,60.45
2022-10-05T14:19:23.963Z,60.63
2022-10-05T14:22:11.980Z,60.66
2022-10-05T14:25:17.261Z,60.96
2022-10-05T14:28:24.377Z,61.28
2022-10-05T14:30:59.967Z,61.47
2022-10-05T14:33:33.200Z,61.64
2022-10-05T14:36:00.468Z,61.54
2022-10-05T14:38:36.416Z,61.77
2022-10-05T14:41:05.033Z,61.37
2022-10-05T14:43:33.433Z,62.16
2022-10-05T14:46:25.395Z,62.14
2022-10-05T14:49:21.387Z,62.70
2022-10-05T14:51:50.140Z,62.89
2022-10-05T14:54:29.172Z,63.05
2022-10-05T14:57:07.293Z,63.13
2022-10-05T14:59:56.268Z,62.98
2022-10-05T15:02:45.431Z,63.65
2022-10-05T15:05:46.139Z,63.43
2022-10-05T15:08:51.563Z,64.37
2022-10-05T15:11:46.719Z,64.53
2022-10-05T15:14:23.278Z,64.39
2022-10-05T15:16:57.947Z,64.65
2022-10-05T15:19:37.454Z,65.10
2022-10-05T15:22:24.937Z,65.08
2022-10-05T15:25:10.375Z,65.65
2022-10-05T15:28:02.027Z,65.25
2022-10-05T15:30:29.764Z,65.72
2022-10-05T15:33:14.830Z,66.09
2022-10-05T15:36:00.868Z,66.52
2022-10-05T15:38:34.133Z,66.26
2022-10-05T15:41:15.412Z,66.47
2022-10-05T15:44:18.330Z,67.00
2022-10-05T15:46:58.475Z,67.31
2022-10-05T15:49:51.806Z,67.06
2022-10-05T15:52:56.960Z,67.49
2022-10-05T15:55:35.637Z,67.30
2022-10-05T15:58:24.283Z,67.65
2022-10-05T16:01:15.013Z,68.12
2022-10-05T16:03:41.827Z,68.01
2022-10-05T16:07:02.077Z,68.33
2022-10-05T16:09:37.869Z,68.00
2022-10-05T16:12:43.109Z,68.75
2022-10-05T16:15:28.845Z,68.60
2022-10-05T16:18:27.413Z,68.89
2022-10-05T16:21:25.901Z,68.97
2022-10-05T16:23:59.486Z,68.95
2022-10-05T16:27:00.930Z,69.19
2022-10-05T16:29:39.711Z,68.60
2022-10-05T16:32:14.482Z,69.52
2022-10-05T16:35:00.137Z,69.81
2022-10-05T16:37:41.481Z,69.55
2022-10-05T16:40:28.676Z,69.13
2022-10-05T16:43:09.964Z,69.38
2022-10-05T16:45:58.763Z,69.39
2022-10-05T16:48:30.975Z,69.07
2022-10-05T16:51:31.780Z,69.50
2022-10-05T16:54:27.708Z,69.28
2022-10-05T16:57:02.308Z,69.35
2022-10-05T16:59:47.617Z,69.54
2022-10-05T17:02:42.727Z,69.85
2022-10-05T17:05:18.985Z,70.19
2022-10-05T17:08:11.131Z,69.86
2022-10-05T17:10:59.130Z,70.00
2022-10-05T17:14:11.284Z,70.19
2022-10-05T17:16:45.973Z,69.86
2022-10-05T17:19:54.214Z,70.26
2022-10-05T17:22:30.641Z,70.22
2022-10-05T17:25:24.475Z,69.98
2022-10-05T17:28:15.350Z,70.53
2022-10-05T17:30:48.936Z,70.45
2022-10-05T17:33:33.183Z,69.89
2022-10-05T17:36:02.062Z,70.26
2022-10-05T17:38:33.928Z,70.26
2022-10-05T17:41:00.970Z,70.52
2022-10-05T17:43:35.699Z,70.19
2022-10-05T17:46:06.105Z,70.33
2022-10-05T17:49:22.243Z,70.52
2022-10-05T17:52:15.728Z,70.27
2022-10-05T17:55:03.799Z,70.00
2022-10-05T17:57:31.978Z,70.00
2022-10-05T18:00:02.567Z,70.10
2022-10-05T18:02:36.250Z,69.92
2022-10-05T18:05:04.495Z,70.68
2022-10-05T18:07:32.897Z,70.21
2022-10-05T18:10:22.975Z,70.82
2022-10-05T18:13:19.020Z,70.48
2022-10-05T18:15:48.970Z,70.27
2022-10-05T18:18:43.870Z,70.96
2022-10-05T18:21:20.777Z,70.94
2022-10-05T18:24:00.387Z,70.92
2022-10-05T18:26:52.640Z,70.55
2022-10-05T18:30:05.478Z,70.50
2022-10-05T18:33:05.105Z,70.86
2022-10-05T18:36:10.960Z,71.34
2022-10-05T18:38:51.625Z,71.35
2022-10-05T18:41:49.338Z,71.03
2022-10-05T18:44:31.478Z,70.47
2022-10-05T18:47:22.674Z,70.94
2022-10-05T18:49:58.761Z,70.75
2022-10-05T18:52:40.736Z,71.01
2022-10-05T18:55:24.194Z,71.39
2022-10-05T18:58:04.438Z,71.00
2022-10-05T19:01:05.792Z,71.56
2022-10-05T19:04:05.172Z,70.79
2022-10-05T19:06:54.865Z,71.46
2022-10-05T19:09:43.612Z,71.61
2022-10-05T19:12:19.007Z,71.47
2022-10-05T19:14:59.347Z,71.80
2022-10-05T19:18:08.895Z,71.77
2022-10-05T19:20:42.215Z,71.32
2022-10-05T19:23:40.375Z,71.43
2022-10-05T19:26:36.053Z,71.75
2022-10-05T19:29:14.683Z,72.20
2022-10-05T19:31:50.505Z,71.56
2022-10-05T19:34:44.390Z,72.03
2022-10-05T19:37:21.173Z,71.77
2022-10-05T19:40:01.706Z,71.65
2022-10-05T19:42:58.185Z,72.30
2022-10-05T19:45:27.692Z,72.06
2022-10-05T19:48:15.799Z,72.48
2022-10-05T19:50:55.050Z,72.05
2022-10-05T19:53:37.767Z,72.11
2022-10-05T19:56:20.686Z,72.60
2022-10-05T19:58:50.003Z,71.63
2022-10-05T20:01:34.442Z,71.81
2022-10-05T20:04:01.466Z,71.98
2022-10-05T20:06:31.405Z,71.80
2022-10-05T20:09:00.486Z,71.67
2022-10-05T20:11:29.459Z,71.81
2022-10-05T20:14:02.605Z,71.96
2022-10-05T20:16:51.492Z,71.52
2022-10-05T20:19:51.994Z,72.24
2022-10-05T20:22:29.281Z,71.83
2022-10-05T20:24:58.964Z,72.13
2022-10-05T20:27:44.060Z,72.23
2022-10-05T20:30:14.412Z,72.27
2022-10-05T20:32:41.876Z,71.38
2022-10-05T20:35:09.031Z,72.08
2022-10-05T20:37:37.179Z,72.02
2022-10-05T20:40:05.751Z,72.01
2022-10-05T20:42:32.826Z,72.17
2022-10-05T20:45:00.053Z,72.15
2022-10-05T20:47:27.510Z,71.81
2022-10-05T20:49:54.920Z,72.23
2022-10-05T20:52:23.406Z,72.07
2022-10-05T20:54:54.112Z,72.31
2022-10-05T20:57:24.637Z,72.89
2022-10-05T20:59:52.019Z,72.63
2022-10-05T21:02:21.686Z,72.34
2022-10-05T21:04:49.179Z,73.14
2022-10-05T21:07:18.115Z,72.85
2022-10-05T21:09:48.123Z,72.78
2022-10-05T21:12:16.700Z,72.58
2022-10-05T21:14:43.814Z,73.03
2022-10-05T21:17:12.316Z,73.05
2022-10-05T21:19:40.639Z,73.03
2022-10-05T21:22:09.305Z,73.39
2022-10-05T21:24:41.208Z,73.49
2022-10-05T21:27:08.846Z,73.26
2022-10-05T21:29:36.817Z,73.39
2022-10-05T21:32:08.773Z,73.42
2022-10-05T21:34:35.817Z,72.66
2022-10-05T21:37:02.714Z,73.21
2022-10-05T21:39:29.664Z,73.24
2022-10-05T21:41:56.850Z,73.01
2022-10-05T21:44:23.794Z,73.11
2022-10-05T21:46:51.155Z,72.70
2022-10-05T21:49:19.886Z,73.60
2022-10-05T21:51:47.738Z,73.09
2022-10-05T21:54:19.153Z,73.36
2022-10-05T21:56:52.178Z,73.33
2022-10-05T21:59:22.615Z,73.72
2022-10-05T22:01:49.636Z,73.42
2022-10-05T22:04:16.622Z,73.77
2022-10-05T22:06:43.577Z,73.54
2022-10-05T22:09:10.774Z,73.82
2022-10-05T22:11:38.171Z,74.07
2022-10-05T22:14:05.291Z,73.71
2022-10-05T22:16:34.933Z,74.17
2022-10-05T22:19:05.734Z,74.43
2022-10-05T22:21:34.448Z,74.61
2022-10-05T22:24:02.636Z,73.96
2022-10-05T22:26:30.193Z,74.27
2022-10-05T22:28:57.376Z,74.40
2022-10-05T22:31:24.726Z,74.39
2022-10-05T22:33:52.403Z,74.59
2022-10-05T22:36:19.899Z,74.73
2022-10-05T22:38:49.702Z,74.62
2022-10-05T22:41:18.567Z,74.75
2022-10-05T22:43:49.009Z,74.56
2022-10-05T22:46:16.321Z,75.01
2022-10-05T22:48:43.633Z,74.97
2022-10-05T22:51:10.801Z,75.02
2022-10-05T22:53:37.993Z,74.88
2022-10-05T22:56:12.903Z,75.38
2022-10-05T22:58:41.626Z,75.17
2022-10-05T23:01:11.935Z,75.46
2022-10-05T23:03:39.229Z,75.62
2022-10-05T23:06:09.946Z,75.95
2022-10-05T23:08:38.478Z,75.99
2022-10-05T23:11:07.960Z,75.78
2022-10-05T23:13:34.947Z,76.02
2022-10-05T23:16:13.162Z,75.22
2022-10-05T23:18:41.135Z,75.85
2022-10-05T23:21:10.127Z,75.76
2022-10-05T23:23:38.886Z,75.95
2022-10-05T23:26:07.622Z,76.02
2022-10-05T23:28:35.172Z,76.06
2022-10-05T23:31:07.669Z,76.60
2022-10-05T23:33:35.454Z,76.42
2022-10-05T23:36:17.114Z,76.91
2022-10-05T23:38:44.711Z,76.60
2022-10-05T23:41:11.728Z,76.40
2022-10-05T23:43:38.797Z,76.99
2022-10-05T23:46:07.355Z,76.72
2022-10-05T23:48:36.613Z,76.97
2022-10-05T23:51:03.854Z,76.54
2022-10-05T23:53:30.774Z,76.72
2022-10-05T23:55:57.728Z,76.63
2022-10-05T23:58:25.075Z,77.56
